createdAt,value
2022-09-27T00:01:12.710Z,1.20
2022-09-27T00:03:44.032Z,0.93
2022-09-27T00:06:40.884Z,1.20
2022-09-27T00:09:10.016Z,1.20
2022-09-27T00:11:40.101Z,1.05
2022-09-27T00:14:09.589Z,1.20
2022-09-27T00:16:39.730Z,0.80
2022-09-27T00:19:16.002Z,1.05
2022-09-27T00:21:45.605Z,1.10
2022-09-27T00:24:15.366Z,1.15
2022-09-27T00:26:43.365Z,1.20
2022-09-27T00:29:11.395Z,1.30
2022-09-27T00:31:39.539Z,1.50
2022-09-27T00:34:08.772Z,1.38
2022-09-27T00:36:36.577Z,1.10
2022-09-27T00:39:04.614Z,1.27
2022-09-27T00:41:35.033Z,1.10
2022-09-27T00:44:33.832Z,0.95
2022-09-27T00:47:16.539Z,0.93
2022-09-27T00:49:50.268Z,0.98
2022-09-27T00:52:48.942Z,0.90
2022-09-27T00:55:20.620Z,1.05
2022-09-27T00:57:49.395Z,1.30
2022-09-27T01:00:18.383Z,1.17
2022-09-27T01:02:55.442Z,1.05
2022-09-27T01:05:27.181Z,1.27
2022-09-27T01:08:00.795Z,0.75
2022-09-27T01:10:40.868Z,1.13
2022-09-27T01:13:37.034Z,0.98
2022-09-27T01:16:20.791Z,1.23
2022-09-27T01:19:39.319Z,1.02
2022-09-27T01:22:13.346Z,0.98
2022-09-27T01:24:59.836Z,1.23
2022-09-27T01:27:58.532Z,0.75
2022-09-27T01:30:34.349Z,1.38
2022-09-27T01:33:10.922Z,0.82
2022-09-27T01:35:57.867Z,1.40
2022-09-27T01:38:56.535Z,0.77
2022-09-27T01:41:37.215Z,0.70
2022-09-27T01:44:31.856Z,1.02
2022-09-27T01:47:23.415Z,0.90
2022-09-27T01:50:08.768Z,1.40
2022-09-27T01:52:54.462Z,0.70
2022-09-27T01:58:44.389Z,0.75
2022-09-27T02:01:15.234Z,1.00
2022-09-27T02:03:48.131Z,0.85
2022-09-27T02:06:45.788Z,0.80
2022-09-27T02:09:28.978Z,0.60
2022-09-27T02:12:14.093Z,0.88
2022-09-27T02:14:54.795Z,0.70
2022-09-27T02:17:26.635Z,0.65
2022-09-27T02:20:39.554Z,0.90
2022-09-27T02:23:16.768Z,0.80
2022-09-27T02:25:55.539Z,0.80
2022-09-27T02:28:37.811Z,0.80
2022-09-27T02:31:07.022Z,0.65
2022-09-27T02:33:43.782Z,0.50
2022-09-27T02:36:11.682Z,0.70
2022-09-27T02:38:40.245Z,0.47
2022-09-27T02:41:19.605Z,1.00
2022-09-27T02:43:57.121Z,0.80
2022-09-27T02:46:31.331Z,0.80
2022-09-27T02:49:24.297Z,0.85
2022-09-27T02:52:32.379Z,0.80
2022-09-27T02:55:24.760Z,0.45
2022-09-27T03:01:29.989Z,0.45
2022-09-27T03:04:32.773Z,0.85
2022-09-27T03:07:01.670Z,0.65
2022-09-27T03:09:40.946Z,0.30
2022-09-27T03:12:08.698Z,0.43
2022-09-27T03:14:36.407Z,0.63
2022-09-27T03:17:27.367Z,0.30
2022-09-27T03:20:15.196Z,0.50
2022-09-27T03:23:06.088Z,0.35
2022-09-27T03:25:34.227Z,0.30
2022-09-27T03:28:02.127Z,0.28
2022-09-27T03:30:30.453Z,0.80
2022-09-27T03:32:59.016Z,0.77
2022-09-27T03:36:02.075Z,0.50
2022-09-27T03:38:29.960Z,0.88
2022-09-27T03:40:59.066Z,0.30
2022-09-27T03:43:26.822Z,0.80
2022-09-27T03:45:59.464Z,2.22
2022-09-27T03:48:28.328Z,2.03
2022-09-27T03:50:56.138Z,1.08
2022-09-27T03:53:23.958Z,1.08
2022-09-27T03:55:51.674Z,1.10
2022-09-27T03:58:19.678Z,1.00
2022-09-27T04:00:47.975Z,0.70
2022-09-27T04:03:15.730Z,1.38
2022-09-27T04:06:04.365Z,1.05
2022-09-27T04:08:38.600Z,0.98
2022-09-27T04:11:07.717Z,0.90
2022-09-27T04:13:36.052Z,1.15
2022-09-27T04:16:03.908Z,1.48
2022-09-27T04:18:50.831Z,0.63
2022-09-27T04:21:42.658Z,0.90
2022-09-27T04:24:20.180Z,1.17
2022-09-27T04:27:08.072Z,0.95
2022-09-27T04:29:43.178Z,0.80
2022-09-27T04:32:27.187Z,0.85
2022-09-27T04:35:33.703Z,0.75
2022-09-27T04:38:01.562Z,0.93
2022-09-27T04:40:30.181Z,2.28
2022-09-27T04:42:57.987Z,2.25
2022-09-27T04:45:25.946Z,1.27
2022-09-27T04:47:54.179Z,1.63
2022-09-27T04:50:22.089Z,0.88
2022-09-27T04:53:02.837Z,0.75
2022-09-27T04:55:30.779Z,1.30
2022-09-27T04:58:01.727Z,1.27
2022-09-27T05:00:30.531Z,1.10
2022-09-27T05:03:19.515Z,1.73
2022-09-27T05:05:56.111Z,1.48
2022-09-27T05:08:24.294Z,2.92
2022-09-27T05:11:27.228Z,3.65
2022-09-27T05:16:55.569Z,1.02
2022-09-27T05:19:41.980Z,1.05
2022-09-27T05:22:17.714Z,0.80
2022-09-27T05:24:46.195Z,1.10
2022-09-27T05:27:16.877Z,1.20
2022-09-27T05:29:45.443Z,0.80
2022-09-27T05:32:18.575Z,0.90
2022-09-27T05:34:53.653Z,1.15
2022-09-27T05:37:21.999Z,0.95
2022-09-27T05:39:50.609Z,0.63
2022-09-27T05:42:19.754Z,0.77
2022-09-27T05:44:48.491Z,4.25
2022-09-27T05:47:24.887Z,18.08
2022-09-27T05:49:54.691Z,10.00
2022-09-27T05:52:25.509Z,8.32
2022-09-27T05:54:56.121Z,1.30
2022-09-27T05:57:24.912Z,1.77
2022-09-27T05:59:55.200Z,0.90
2022-09-27T06:02:25.811Z,0.73
2022-09-27T06:05:11.865Z,1.60
2022-09-27T06:07:46.272Z,0.88
2022-09-27T06:10:22.083Z,0.70
2022-09-27T06:12:51.559Z,0.85
2022-09-27T06:15:31.552Z,1.08
2022-09-27T06:18:06.589Z,1.42
2022-09-27T06:20:36.758Z,1.33
2022-09-27T06:23:12.885Z,1.98
2022-09-27T06:25:44.890Z,3.72
2022-09-27T06:28:27.335Z,4.43
2022-09-27T06:31:01.232Z,3.70
2022-09-27T06:33:38.957Z,3.22
2022-09-27T06:36:08.750Z,1.60
2022-09-27T06:38:42.139Z,1.77
2022-09-27T06:41:22.939Z,1.67
2022-09-27T06:44:11.457Z,1.58
2022-09-27T06:47:18.007Z,1.52
2022-09-27T06:50:06.892Z,1.30
2022-09-27T06:52:38.101Z,0.90
2022-09-27T06:55:06.403Z,1.05
2022-09-27T06:57:53.644Z,0.57
2022-09-27T07:03:14.406Z,0.93
2022-09-27T07:06:26.195Z,0.80
2022-09-27T07:09:00.481Z,0.80
2022-09-27T07:11:29.068Z,0.57
2022-09-27T07:13:58.094Z,0.88
2022-09-27T07:16:26.277Z,1.35
2022-09-27T07:18:54.069Z,0.80
2022-09-27T07:21:21.821Z,0.40
2022-09-27T07:23:50.645Z,0.60
2022-09-27T07:26:18.420Z,0.40
2022-09-27T07:28:46.623Z,0.32
2022-09-27T07:31:17.567Z,0.40
2022-09-27T07:33:46.270Z,0.50
2022-09-27T07:36:14.357Z,0.20
2022-09-27T07:38:44.170Z,0.20
2022-09-27T07:41:14.834Z,0.28
2022-09-27T07:43:46.650Z,0.40
2022-09-27T07:46:15.433Z,0.40
2022-09-27T07:48:57.434Z,0.55
2022-09-27T07:51:55.465Z,1.90
2022-09-27T07:54:48.054Z,0.60
2022-09-27T07:57:32.258Z,0.80
2022-09-27T08:00:04.280Z,1.45
2022-09-27T08:02:47.933Z,0.90
2022-09-27T08:05:18.491Z,1.33
2022-09-27T08:07:47.698Z,0.85
2022-09-27T08:10:15.484Z,0.45
2022-09-27T08:12:43.196Z,0.47
2022-09-27T08:15:11.104Z,0.50
2022-09-27T08:17:38.737Z,1.38
2022-09-27T08:20:14.620Z,0.40
2022-09-27T08:23:07.526Z,0.55
2022-09-27T08:25:38.143Z,0.50
2022-09-27T08:28:27.244Z,0.30
2022-09-27T08:31:06.858Z,0.43
2022-09-27T08:33:40.499Z,0.45
2022-09-27T08:36:13.244Z,0.40
2022-09-27T08:38:41.757Z,0.52
2022-09-27T08:41:33.927Z,0.50
2022-09-27T08:44:22.564Z,1.70
2022-09-27T08:47:22.600Z,0.70
2022-09-27T08:50:09.022Z,0.45
2022-09-27T08:52:45.668Z,1.40
2022-09-27T08:55:38.420Z,1.10
2022-09-27T08:58:27.436Z,0.60
2022-09-27T09:01:03.392Z,0.50
2022-09-27T09:03:46.077Z,1.00
2022-09-27T09:06:28.839Z,1.00
2022-09-27T09:09:32.689Z,0.85
2022-09-27T09:12:50.355Z,1.15
2022-09-27T09:15:59.368Z,1.20
2022-09-27T09:18:52.344Z,1.05
2022-09-27T09:22:04.555Z,0.82
2022-09-27T09:24:54.694Z,0.70
2022-09-27T09:27:35.433Z,0.22
2022-09-27T09:30:12.145Z,0.90
2022-09-27T09:33:12.046Z,0.80
2022-09-27T09:35:46.020Z,0.77
2022-09-27T09:38:23.573Z,0.88
2022-09-27T09:41:02.562Z,0.68
2022-09-27T09:43:35.727Z,0.43
2022-09-27T09:46:14.460Z,0.55
2022-09-27T09:48:59.497Z,1.90
2022-09-27T09:51:35.242Z,1.30
2022-09-27T09:54:19.903Z,0.60
2022-09-27T09:56:53.359Z,0.38
2022-09-27T09:59:25.785Z,0.35
2022-09-27T10:02:00.312Z,0.50
2022-09-27T10:04:29.273Z,0.90
2022-09-27T10:07:00.848Z,1.10
2022-09-27T10:09:33.703Z,0.60
2022-09-27T10:12:33.348Z,1.08
2022-09-27T10:15:08.041Z,0.50
2022-09-27T10:17:40.579Z,0.90
2022-09-27T10:20:28.763Z,0.40
2022-09-27T10:23:11.769Z,0.47
2022-09-27T10:26:10.382Z,0.47
2022-09-27T10:28:47.566Z,0.73
2022-09-27T10:31:21.791Z,0.63
2022-09-27T10:34:26.534Z,0.65
2022-09-27T10:37:12.255Z,0.60
2022-09-27T10:39:47.642Z,1.20
2022-09-27T10:42:22.202Z,0.75
2022-09-27T10:44:50.385Z,0.50
2022-09-27T10:47:37.947Z,1.52
2022-09-27T10:53:25.189Z,0.50
2022-09-27T10:56:04.454Z,0.60
2022-09-27T10:58:36.896Z,0.30
2022-09-27T11:01:12.687Z,0.32
2022-09-27T11:04:00.264Z,0.35
2022-09-27T11:06:38.015Z,0.32
2022-09-27T11:09:19.064Z,0.43
2022-09-27T11:11:50.818Z,0.60
2022-09-27T11:14:22.039Z,0.65
2022-09-27T11:17:10.699Z,0.50
2022-09-27T11:19:42.907Z,0.40
2022-09-27T11:22:35.799Z,0.50
2022-09-27T11:25:34.750Z,0.60
2022-09-27T11:28:45.155Z,0.32
2022-09-27T11:31:55.328Z,0.45
2022-09-27T11:35:13.428Z,0.52
2022-09-27T11:37:41.420Z,0.28
2022-09-27T11:40:18.550Z,0.50
2022-09-27T11:43:01.645Z,0.50
2022-09-27T11:45:56.274Z,0.35
2022-09-27T11:49:04.540Z,0.17
2022-09-27T11:52:02.810Z,0.50
2022-09-27T11:54:42.889Z,0.30
2022-09-27T11:57:22.831Z,0.40
2022-09-27T12:00:09.353Z,0.20
2022-09-27T12:02:57.372Z,1.00
2022-09-27T12:05:58.116Z,0.20
2022-09-27T12:08:48.518Z,0.20
2022-09-27T12:11:28.147Z,0.40
2022-09-27T12:14:02.849Z,0.55
2022-09-27T12:16:40.624Z,1.00
2022-09-27T12:19:18.382Z,0.22
2022-09-27T12:22:58.243Z,0.20
2022-09-27T12:25:41.958Z,0.30
2022-09-27T12:28:53.124Z,0.10
2022-09-27T12:31:29.744Z,0.40
2022-09-27T12:34:19.864Z,0.22
2022-09-27T12:36:58.994Z,0.15
2022-09-27T12:39:49.334Z,0.20
2022-09-27T12:42:55.872Z,0.13
2022-09-27T12:45:48.175Z,0.08
2022-09-27T12:49:00.404Z,0.13
2022-09-27T12:51:35.791Z,0.20
2022-09-27T12:54:22.658Z,0.00
2022-09-27T12:57:12.616Z,0.10
2022-09-27T12:59:48.299Z,0.32
2022-09-27T13:02:23.944Z,0.00
2022-09-27T13:07:34.154Z,0.20
2022-09-27T13:10:20.459Z,0.28
2022-09-27T13:12:56.013Z,0.40
2022-09-27T13:15:42.424Z,0.22
2022-09-27T13:18:32.095Z,0.10
2022-09-27T13:21:03.003Z,0.10
2022-09-27T13:23:39.076Z,0.20
2022-09-27T13:26:09.826Z,0.30
2022-09-27T13:28:48.392Z,0.17
2022-09-27T13:31:55.578Z,0.40
2022-09-27T13:34:43.479Z,0.90
2022-09-27T13:37:45.672Z,0.73
2022-09-27T13:40:29.556Z,0.13
2022-09-27T13:43:42.742Z,0.03
2022-09-27T13:46:26.877Z,0.20
2022-09-27T13:49:15.206Z,0.03
2022-09-27T13:52:33.980Z,0.20
2022-09-27T13:55:40.432Z,0.20
2022-09-27T13:58:15.338Z,0.47
2022-09-27T14:00:54.870Z,0.38
2022-09-27T14:03:50.144Z,0.30
2022-09-27T14:06:30.214Z,0.70
2022-09-27T14:09:14.325Z,0.20
2022-09-27T14:11:44.749Z,0.00
2022-09-27T14:14:23.294Z,0.55
2022-09-27T14:16:55.829Z,0.22
2022-09-27T14:19:28.073Z,0.20
2022-09-27T14:22:22.824Z,0.10
2022-09-27T14:24:55.604Z,1.42
2022-09-27T14:27:38.691Z,0.10
2022-09-27T14:30:46.700Z,0.20
2022-09-27T14:33:35.045Z,3.10
2022-09-27T14:36:27.015Z,1.00
2022-09-27T14:38:58.906Z,1.25
2022-09-27T14:41:39.690Z,2.05
2022-09-27T14:44:16.658Z,2.20
2022-09-27T14:46:45.250Z,1.42
2022-09-27T14:49:23.555Z,1.05
2022-09-27T14:51:56.262Z,0.40
2022-09-27T14:54:27.579Z,1.92
2022-09-27T14:56:56.847Z,0.20
2022-09-27T14:59:34.277Z,0.17
2022-09-27T15:02:16.076Z,0.40
2022-09-27T15:04:47.073Z,0.40
2022-09-27T15:07:18.014Z,0.40
2022-09-27T15:09:47.358Z,0.50
2022-09-27T15:12:25.593Z,0.40
2022-09-27T15:14:56.597Z,0.45
2022-09-27T15:18:20.675Z,0.50
2022-09-27T15:20:57.685Z,0.57
2022-09-27T15:23:30.833Z,0.10
2022-09-27T15:26:07.652Z,0.03
2022-09-27T15:28:40.219Z,1.73
2022-09-27T15:31:08.689Z,1.58
2022-09-27T15:33:36.858Z,0.63
2022-09-27T15:37:09.602Z,1.88
2022-09-27T15:39:40.820Z,1.65
2022-09-27T15:42:19.737Z,1.00
2022-09-27T15:44:58.277Z,0.52
2022-09-27T15:47:34.844Z,0.50
2022-09-27T15:50:18.073Z,0.40
2022-09-27T15:52:48.081Z,0.60
2022-09-27T15:55:16.951Z,0.80
2022-09-27T15:57:51.094Z,0.40
2022-09-27T16:00:20.743Z,0.63
2022-09-27T16:02:48.661Z,0.80
2022-09-27T16:05:16.369Z,1.10
2022-09-27T16:07:43.976Z,0.98
2022-09-27T16:10:32.705Z,1.60
2022-09-27T16:13:00.320Z,3.13
2022-09-27T16:15:36.536Z,3.83
2022-09-27T16:18:05.750Z,1.38
2022-09-27T16:20:33.697Z,0.50
2022-09-27T16:23:03.950Z,0.63
2022-09-27T16:25:31.659Z,0.30
2022-09-27T16:28:00.994Z,0.47
2022-09-27T16:30:31.698Z,0.47
2022-09-27T16:32:59.542Z,0.45
2022-09-27T16:35:28.523Z,0.80
2022-09-27T16:37:56.146Z,0.38
2022-09-27T16:40:25.472Z,0.35
2022-09-27T16:42:57.153Z,0.30
2022-09-27T16:45:32.809Z,0.55
2022-09-27T16:48:01.283Z,0.52
2022-09-27T16:50:47.612Z,0.40
2022-09-27T16:53:16.076Z,0.47
2022-09-27T16:55:46.829Z,0.30
2022-09-27T16:58:14.654Z,0.15
2022-09-27T17:00:43.350Z,0.45
2022-09-27T17:03:11.404Z,0.73
2022-09-27T17:05:39.405Z,0.30
2022-09-27T17:08:07.141Z,0.30
2022-09-27T17:10:35.985Z,0.10
2022-09-27T17:13:04.226Z,0.35
2022-09-27T17:15:36.471Z,0.30
2022-09-27T17:18:04.173Z,0.70
2022-09-27T17:20:34.713Z,0.68
2022-09-27T17:23:02.314Z,1.35
2022-09-27T17:25:30.132Z,1.75
2022-09-27T17:27:57.878Z,0.50
2022-09-27T17:30:26.265Z,1.00
2022-09-27T17:32:53.988Z,0.77
2022-09-27T17:35:21.841Z,0.90
2022-09-27T17:37:50.766Z,0.93
2022-09-27T17:40:18.847Z,0.70
2022-09-27T17:42:46.580Z,0.47
2022-09-27T17:45:14.423Z,0.40
2022-09-27T17:48:00.653Z,0.82
2022-09-27T17:52:58.733Z,0.77
2022-09-27T17:55:27.102Z,0.20
2022-09-27T17:57:57.220Z,0.98
2022-09-27T18:00:24.941Z,0.20
2022-09-27T18:02:53.057Z,0.38
2022-09-27T18:05:21.775Z,0.35
2022-09-27T18:07:49.700Z,0.60
2022-09-27T18:10:18.164Z,0.40
2022-09-27T18:12:45.882Z,0.63
2022-09-27T18:15:16.838Z,0.30
2022-09-27T18:17:45.965Z,0.40
2022-09-27T18:20:13.735Z,0.45
2022-09-27T18:22:41.405Z,0.90
2022-09-27T18:25:09.280Z,1.10
2022-09-27T18:27:45.026Z,0.65
2022-09-27T18:30:15.154Z,0.70
2022-09-27T18:32:51.370Z,0.20
2022-09-27T18:35:20.327Z,0.80
2022-09-27T18:37:48.160Z,1.15
2022-09-27T18:40:27.911Z,0.55
2022-09-27T18:43:04.511Z,0.70
2022-09-27T18:45:36.835Z,0.63
2022-09-27T18:48:05.738Z,0.90
2022-09-27T18:50:37.580Z,1.30
2022-09-27T18:53:05.246Z,1.80
2022-09-27T18:55:37.298Z,1.38
2022-09-27T18:58:05.266Z,0.80
2022-09-27T19:00:33.488Z,1.00
2022-09-27T19:03:01.503Z,0.68
2022-09-27T19:05:29.650Z,0.50
2022-09-27T19:07:57.291Z,0.90
2022-09-27T19:10:27.082Z,0.98
2022-09-27T19:12:56.929Z,1.05
2022-09-27T19:15:24.882Z,1.08
2022-09-27T19:17:52.511Z,1.17
2022-09-27T19:20:20.316Z,1.38
2022-09-27T19:22:47.934Z,0.90
2022-09-27T19:25:15.750Z,0.90
2022-09-27T19:27:43.901Z,1.50
2022-09-27T19:30:12.314Z,2.03
2022-09-27T19:32:39.969Z,0.95
2022-09-27T19:35:08.857Z,0.65
2022-09-27T19:37:36.477Z,1.17
2022-09-27T19:40:04.626Z,0.55
2022-09-27T19:42:32.366Z,0.80
2022-09-27T19:45:00.102Z,0.57
2022-09-27T19:47:28.365Z,0.55
2022-09-27T19:49:57.122Z,0.30
2022-09-27T19:52:25.422Z,0.30
2022-09-27T19:54:53.067Z,0.40
2022-09-27T19:57:20.721Z,0.63
2022-09-27T19:59:48.295Z,0.60
2022-09-27T20:02:16.014Z,0.30
2022-09-27T20:04:43.808Z,1.17
2022-09-27T20:07:11.691Z,0.35
2022-09-27T20:09:39.336Z,0.32
2022-09-27T20:12:07.219Z,0.73
2022-09-27T20:14:34.808Z,0.38
2022-09-27T20:17:02.483Z,0.65
2022-09-27T20:19:30.090Z,0.40
2022-09-27T20:21:57.860Z,0.22
2022-09-27T20:24:25.534Z,0.32
2022-09-27T20:26:53.504Z,0.40
2022-09-27T20:29:21.373Z,0.20
2022-09-27T20:32:15.484Z,0.38
2022-09-27T20:34:36.783Z,0.40
2022-09-27T20:37:04.749Z,1.10
2022-09-27T20:39:32.427Z,0.47
2022-09-27T20:42:00.118Z,0.88
2022-09-27T20:44:27.778Z,1.27
2022-09-27T20:46:55.487Z,0.50
2022-09-27T20:49:23.386Z,0.57
2022-09-27T20:51:51.440Z,3.38
2022-09-27T20:54:19.264Z,1.02
2022-09-27T20:56:48.515Z,0.90
2022-09-27T20:59:21.877Z,0.55
2022-09-27T21:01:51.349Z,0.80
2022-09-27T21:04:20.215Z,0.80
2022-09-27T21:06:48.377Z,0.80
2022-09-27T21:09:19.886Z,1.38
2022-09-27T21:11:51.679Z,1.85
2022-09-27T21:14:19.742Z,1.20
2022-09-27T21:16:47.369Z,0.90
2022-09-27T21:19:15.165Z,1.35
2022-09-27T21:21:42.888Z,0.82
2022-09-27T21:24:11.485Z,0.80
2022-09-27T21:26:39.088Z,0.70
2022-09-27T21:29:09.133Z,0.70
2022-09-27T21:31:38.094Z,0.98
2022-09-27T21:34:06.739Z,0.95
2022-09-27T21:36:36.938Z,0.80
2022-09-27T21:39:06.707Z,0.77
2022-09-27T21:41:34.432Z,1.20
2022-09-27T21:44:06.232Z,2.20
2022-09-27T21:46:34.497Z,1.05
2022-09-27T21:49:02.497Z,0.70
2022-09-27T21:51:36.961Z,0.88
2022-09-27T21:54:07.122Z,0.47
2022-09-27T21:56:37.650Z,0.50
2022-09-27T21:59:10.056Z,0.60
2022-09-27T22:01:37.996Z,0.82
2022-09-27T22:04:06.856Z,0.50
2022-09-27T22:06:36.728Z,0.90
2022-09-27T22:09:08.024Z,0.70
2022-09-27T22:11:39.750Z,0.70
2022-09-27T22:14:07.996Z,0.70
2022-09-27T22:16:36.360Z,0.43
2022-09-27T22:19:04.940Z,0.45
2022-09-27T22:21:36.047Z,0.28
2022-09-27T22:24:16.360Z,0.50
2022-09-27T22:26:49.851Z,0.40
2022-09-27T22:29:18.242Z,0.32
2022-09-27T22:31:46.160Z,0.50
2022-09-27T22:34:18.370Z,0.82
2022-09-27T22:36:46.035Z,0.50
2022-09-27T22:39:13.922Z,0.63
2022-09-27T22:41:41.611Z,0.68
2022-09-27T22:44:09.222Z,0.50
2022-09-27T22:46:36.948Z,0.45
2022-09-27T22:49:04.599Z,0.40
2022-09-27T22:51:32.427Z,0.30
2022-09-27T22:54:01.024Z,0.52
2022-09-27T22:56:28.668Z,0.40
2022-09-27T22:58:56.247Z,0.57
2022-09-27T23:01:24.934Z,0.60
2022-09-27T23:03:54.049Z,0.30
2022-09-27T23:06:22.851Z,0.30
2022-09-27T23:08:51.728Z,0.50
2022-09-27T23:11:21.710Z,0.30
2022-09-27T23:13:50.708Z,0.60
2022-09-27T23:16:25.704Z,0.50
2022-09-27T23:18:55.267Z,0.60
2022-09-27T23:21:25.822Z,0.30
2022-09-27T23:23:59.823Z,0.60
2022-09-27T23:26:28.633Z,0.70
2022-09-27T23:29:00.895Z,0.52
2022-09-27T23:31:32.230Z,0.30
2022-09-27T23:34:03.669Z,0.45
2022-09-27T23:36:31.717Z,0.30
2022-09-27T23:39:00.958Z,0.30
2022-09-27T23:41:28.658Z,0.45
2022-09-27T23:43:56.703Z,0.40
2022-09-27T23:46:25.163Z,0.43
2022-09-27T23:48:53.677Z,0.30
2022-09-27T23:51:21.298Z,0.43
2022-09-27T23:53:49.362Z,0.20
2022-09-27T23:56:17.752Z,0.32
2022-09-27T23:58:46.702Z,0.40
